createdAt,value
2023-01-08T05:00:28.973Z,6.00
2023-01-08T05:11:33.728Z,4.60
2023-01-08T05:22:33.586Z,4.20
2023-01-08T05:33:33.465Z,4.30
2023-01-08T05:44:33.361Z,4.80
2023-01-08T05:55:33.284Z,4.00
2023-01-08T06:06:34.089Z,3.60
2023-01-08T06:17:32.968Z,3.70
2023-01-08T06:28:32.845Z,3.80
2023-01-08T06:39:32.752Z,2.80
2023-01-08T06:50:32.620Z,3.60
2023-01-08T07:01:32.557Z,3.50
2023-01-08T07:12:32.378Z,2.90
2023-01-08T07:23:32.337Z,3.10
2023-01-08T07:34:32.101Z,5.80
2023-01-08T07:45:31.987Z,3.00
2023-01-08T07:56:31.865Z,2.60
2023-01-08T08:07:31.724Z,2.50
2023-01-08T08:18:31.603Z,2.90
2023-01-08T08:29:31.471Z,3.80
2023-01-08T08:40:31.387Z,2.80
2023-01-08T08:51:31.339Z,2.90
2023-01-08T09:02:31.489Z,3.40
2023-01-08T09:13:30.975Z,3.10
2023-01-08T09:24:30.845Z,3.70
2023-01-08T09:35:30.764Z,3.00
2023-01-08T09:46:30.765Z,3.30
2023-01-08T09:57:31.338Z,2.90
2023-01-08T10:08:30.808Z,3.20
2023-01-08T10:19:31.939Z,2.70
2023-01-08T10:30:30.305Z,2.70
2023-01-08T10:41:31.107Z,3.00
2023-01-08T10:52:29.987Z,2.20
2023-01-08T11:03:29.789Z,1.60
2023-01-08T11:14:29.602Z,1.70
2023-01-08T11:25:29.486Z,2.10
2023-01-08T11:36:29.369Z,2.00
2023-01-08T11:47:29.248Z,1.80
2023-01-08T11:58:29.127Z,1.60
2023-01-08T12:09:29.009Z,1.70
2023-01-08T12:20:28.859Z,1.90
2023-01-08T12:31:28.773Z,2.20
2023-01-08T12:42:28.703Z,1.70
2023-01-08T12:53:28.501Z,2.20
2023-01-08T13:04:28.379Z,1.80
2023-01-08T13:15:28.242Z,1.70
2023-01-08T13:26:28.127Z,1.90
2023-01-08T13:37:28.288Z,1.50
2023-01-08T13:48:27.922Z,1.70
2023-01-08T13:59:27.728Z,1.90
2023-01-08T14:10:27.607Z,2.00
2023-01-08T14:21:27.720Z,1.30
2023-01-08T14:32:27.379Z,1.20
2023-01-08T14:43:27.694Z,1.70
2023-01-08T14:54:27.148Z,1.30
2023-01-08T15:05:27.219Z,1.40
2023-01-08T15:16:26.937Z,0.80
2023-01-08T15:27:26.822Z,1.20
2023-01-08T15:38:26.659Z,0.90
2023-01-08T15:49:26.559Z,1.40
2023-01-08T16:00:26.355Z,1.00
2023-01-08T16:11:26.236Z,0.80
2023-01-08T16:22:26.374Z,1.40
2023-01-08T16:33:26.231Z,0.90
2023-01-08T16:44:27.638Z,1.30
2023-01-08T16:55:25.984Z,1.40
2023-01-08T17:06:25.859Z,2.40
2023-01-08T17:17:25.616Z,1.60
2023-01-08T17:28:27.232Z,1.40
2023-01-08T17:39:25.317Z,3.40
2023-01-08T17:50:26.395Z,1.40
2023-01-08T18:01:25.311Z,2.90
2023-01-08T18:12:24.941Z,2.00
2023-01-08T18:23:24.739Z,1.70
2023-01-08T18:34:24.630Z,2.20
2023-01-08T18:45:24.814Z,2.00
2023-01-08T18:56:24.687Z,3.20
2023-01-08T19:07:24.316Z,4.00
2023-01-08T19:18:24.157Z,4.60
2023-01-08T19:29:24.107Z,3.50
2023-01-08T19:40:23.955Z,3.90
2023-01-08T19:51:23.814Z,3.10
2023-01-08T20:02:23.868Z,4.10
2023-01-08T20:13:23.529Z,3.70
2023-01-08T20:24:23.375Z,1.80
2023-01-08T20:35:23.298Z,1.90
2023-01-08T20:46:23.141Z,2.10
2023-01-08T20:57:23.186Z,2.40
2023-01-08T21:08:23.000Z,3.10
2023-01-08T21:19:22.748Z,2.10
2023-01-08T21:30:22.661Z,2.60
2023-01-08T21:41:22.607Z,2.60
2023-01-08T21:52:22.445Z,1.80
